sensor_id;sensor_type;location;lat;lon;timestamp;temperature;humidity
4896;DHT22;2463;49.948;8.472;2024-03-23T00:55:59;8.50;99.90
4896;DHT22;2463;49.948;8.472;2024-03-23T00:58:25;8.50;99.90
4896;DHT22;2463;49.948;8.472;2024-03-23T01:00:51;8.50;99.90
4896;DHT22;2463;49.948;8.472;2024-03-23T01:03:16;9.10;99.90
4896;DHT22;2463;49.948;8.472;2024-03-23T01:05:42;8.60;99.90
4896;DHT22;2463;49.948;8.472;2024-03-23T01:08:08;8.70;99.90
4896;DHT22;2463;49.948;8.472;2024-03-23T01:10:33;8.70;99.90
4896;DHT22;2463;49.948;8.472;2024-03-23T01:12:59;8.70;99.90
4896;DHT22;2463;49.948;8.472;2024-03-23T01:15:25;8.80;99.90
4896;DHT22;2463;49.948;8.472;2024-03-23T01:17:50;8.80;99.90
4896;DHT22;2463;49.948;8.472;2024-03-23T01:20:16;8.90;99.90
4896;DHT22;2463;49.948;8.472;2024-03-23T01:22:42;8.90;99.90
4896;DHT22;2463;49.948;8.472;2024-03-23T01:25:08;8.90;99.90
4896;DHT22;2463;49.948;8.472;2024-03-23T01:27:33;8.90;99.90
4896;DHT22;2463;49.948;8.472;2024-03-23T01:29:59;8.90;99.90
4896;DHT22;2463;49.948;8.472;2024-03-23T01:32:25;8.80;99.90
4896;DHT22;2463;49.948;8.472;2024-03-23T01:34:51;8.90;99.90
4896;DHT22;2463;49.948;8.472;2024-03-23T01:37:16;8.90;99.90
4896;DHT22;2463;49.948;8.472;2024-03-23T01:39:42;8.90;99.90
4896;DHT22;2463;49.948;8.472;2024-03-23T01:42:08;9.00;99.90
4896;DHT22;2463;49.948;8.472;2024-03-23T01:44:34;9.00;99.90
4896;DHT22;2463;49.948;8.472;2024-03-23T01:46:59;9.00;99.90
4896;DHT22;2463;49.948;8.472;2024-03-23T01:49:25;8.90;99.90
4896;DHT22;2463;49.948;8.472;2024-03-23T01:51:51;8.80;99.90
4896;DHT22;2463;49.948;8.472;2024-03-23T01:54:17;8.70;99.90
4896;DHT22;2463;49.948;8.472;2024-03-23T01:56:43;8.70;99.90
4896;DHT22;2463;49.948;8.472;2024-03-23T01:59:08;8.60;99.90
4896;DHT22;2463;49.948;8.472;2024-03-23T02:01:37;8.60;99.90
4896;DHT22;2463;49.948;8.472;2024-03-23T02:04:03;8.60;99.90
4896;DHT22;2463;49.948;8.472;2024-03-23T02:06:29;8.70;99.90
4896;DHT22;2463;49.948;8.472;2024-03-23T02:08:55;8.70;99.90
4896;DHT22;2463;49.948;8.472;2024-03-23T02:11:21;8.70;99.90
4896;DHT22;2463;49.948;8.472;2024-03-23T02:13:46;8.70;99.90
4896;DHT22;2463;49.948;8.472;2024-03-23T02:16:12;8.60;99.90
4896;DHT22;2463;49.948;8.472;2024-03-23T02:18:39;8.70;99.90
4896;DHT22;2463;49.948;8.472;2024-03-23T02:21:04;8.70;99.90
4896;DHT22;2463;49.948;8.472;2024-03-23T02:23:30;8.70;99.90
4896;DHT22;2463;49.948;8.472;2024-03-23T02:25:56;8.70;99.90
4896;DHT22;2463;49.948;8.472;2024-03-23T02:28:22;8.70;99.90
4896;DHT22;2463;49.948;8.472;2024-03-23T02:30:51;8.70;99.90
4896;DHT22;2463;49.948;8.472;2024-03-23T02:33:18;8.70;99.90
4896;DHT22;2463;49.948;8.472;2024-03-23T02:35:45;8.70;99.90
4896;DHT22;2463;49.948;8.472;2024-03-23T02:38:11;8.70;99.90
4896;DHT22;2463;49.948;8.472;2024-03-23T02:40:37;8.80;99.90
4896;DHT22;2463;49.948;8.472;2024-03-23T02:43:03;8.80;99.90
4896;DHT22;2463;49.948;8.472;2024-03-23T02:45:29;8.80;99.90
4896;DHT22;2463;49.948;8.472;2024-03-23T02:47:55;8.90;99.90
4896;DHT22;2463;49.948;8.472;2024-03-23T02:50:21;8.90;99.90
4896;DHT22;2463;49.948;8.472;2024-03-23T02:52:47;8.90;99.90
4896;DHT22;2463;49.948;8.472;2024-03-23T02:55:14;8.90;99.90
4896;DHT22;2463;49.948;8.472;2024-03-23T02:57:40;8.90;99.90
4896;DHT22;2463;49.948;8.472;2024-03-23T03:00:06;8.90;99.90
4896;DHT22;2463;49.948;8.472;2024-03-23T03:02:33;11.20;99.90
4896;DHT22;2463;49.948;8.472;2024-03-23T03:04:59;9.00;99.90
4896;DHT22;2463;49.948;8.472;2024-03-23T03:07:25;9.00;99.90
4896;DHT22;2463;49.948;8.472;2024-03-23T03:09:51;9.00;99.90
4896;DHT22;2463;49.948;8.472;2024-03-23T03:12:16;9.00;99.90
4896;DHT22;2463;49.948;8.472;2024-03-23T03:14:42;9.00;99.90
4896;DHT22;2463;49.948;8.472;2024-03-23T03:17:08;9.00;99.90
4896;DHT22;2463;49.948;8.472;2024-03-23T03:19:34;9.00;99.90
4896;DHT22;2463;49.948;8.472;2024-03-23T03:22:00;9.10;99.90
4896;DHT22;2463;49.948;8.472;2024-03-23T03:24:25;9.10;99.90
4896;DHT22;2463;49.948;8.472;2024-03-23T03:26:51;9.10;99.90
4896;DHT22;2463;49.948;8.472;2024-03-23T03:29:17;9.10;99.90
4896;DHT22;2463;49.948;8.472;2024-03-23T03:31:43;9.10;99.90
4896;DHT22;2463;49.948;8.472;2024-03-23T03:34:09;9.10;99.90
4896;DHT22;2463;49.948;8.472;2024-03-23T03:36:34;9.10;99.90
4896;DHT22;2463;49.948;8.472;2024-03-23T03:39:00;9.10;99.90
4896;DHT22;2463;49.948;8.472;2024-03-23T03:41:28;9.00;99.90
4896;DHT22;2463;49.948;8.472;2024-03-23T03:43:53;9.10;99.90
4896;DHT22;2463;49.948;8.472;2024-03-23T03:46:20;9.00;99.90
4896;DHT22;2463;49.948;8.472;2024-03-23T03:48:46;9.10;99.90
4896;DHT22;2463;49.948;8.472;2024-03-23T03:51:14;9.10;99.90
4896;DHT22;2463;49.948;8.472;2024-03-23T03:53:40;9.20;99.90
4896;DHT22;2463;49.948;8.472;2024-03-23T03:56:05;9.20;99.90
4896;DHT22;2463;49.948;8.472;2024-03-23T03:58:32;9.30;99.90
4896;DHT22;2463;49.948;8.472;2024-03-23T04:00:58;9.30;99.90
4896;DHT22;2463;49.948;8.472;2024-03-23T04:03:23;9.40;99.90
4896;DHT22;2463;49.948;8.472;2024-03-23T04:05:53;9.40;99.90
4896;DHT22;2463;49.948;8.472;2024-03-23T04:08:20;9.50;99.90
4896;DHT22;2463;49.948;8.472;2024-03-23T04:10:45;9.50;99.90
4896;DHT22;2463;49.948;8.472;2024-03-23T04:13:12;9.60;99.90
4896;DHT22;2463;49.948;8.472;2024-03-23T04:15:38;9.60;99.90
4896;DHT22;2463;49.948;8.472;2024-03-23T04:18:04;9.60;99.90
4896;DHT22;2463;49.948;8.472;2024-03-23T04:20:29;9.60;99.90
4896;DHT22;2463;49.948;8.472;2024-03-23T04:22:55;9.70;99.90
4896;DHT22;2463;49.948;8.472;2024-03-23T04:25:21;9.70;99.90
4896;DHT22;2463;49.948;8.472;2024-03-23T04:27:46;9.60;99.90
4896;DHT22;2463;49.948;8.472;2024-03-23T04:30:12;9.50;99.90
4896;DHT22;2463;49.948;8.472;2024-03-23T04:32:38;9.40;99.90
4896;DHT22;2463;49.948;8.472;2024-03-23T04:35:04;9.40;99.90
4896;DHT22;2463;49.948;8.472;2024-03-23T04:37:35;9.30;99.90
4896;DHT22;2463;49.948;8.472;2024-03-23T04:40:02;9.20;99.90
4896;DHT22;2463;49.948;8.472;2024-03-23T04:42:29;9.10;99.90
4896;DHT22;2463;49.948;8.472;2024-03-23T04:44:55;9.20;99.90
4896;DHT22;2463;49.948;8.472;2024-03-23T04:47:20;9.10;99.90
4896;DHT22;2463;49.948;8.472;2024-03-23T04:49:46;9.10;99.90
4896;DHT22;2463;49.948;8.472;2024-03-23T04:52:12;9.10;99.90
4896;DHT22;2463;49.948;8.472;2024-03-23T04:54:38;9.10;99.90
4896;DHT22;2463;49.948;8.472;2024-03-23T04:57:06;9.00;99.90
4896;DHT22;2463;49.948;8.472;2024-03-23T04:59:32;9.00;99.90
4896;DHT22;2463;49.948;8.472;2024-03-23T05:01:59;8.90;99.90
4896;DHT22;2463;49.948;8.472;2024-03-23T05:04:25;8.90;99.90
4896;DHT22;2463;49.948;8.472;2024-03-23T05:06:51;8.80;99.90
4896;DHT22;2463;49.948;8.472;2024-03-23T05:09:17;8.80;99.90
4896;DHT22;2463;49.948;8.472;2024-03-23T05:11:42;8.80;99.90
4896;DHT22;2463;49.948;8.472;2024-03-23T05:14:08;8.80;99.90
4896;DHT22;2463;49.948;8.472;2024-03-23T05:16:34;8.70;99.90
4896;DHT22;2463;49.948;8.472;2024-03-23T05:18:59;8.70;99.90
4896;DHT22;2463;49.948;8.472;2024-03-23T05:21:26;8.60;99.90
4896;DHT22;2463;49.948;8.472;2024-03-23T05:23:54;8.60;99.90
4896;DHT22;2463;49.948;8.472;2024-03-23T05:26:21;8.60;99.90
4896;DHT22;2463;49.948;8.472;2024-03-23T05:28:47;8.60;99.90
4896;DHT22;2463;49.948;8.472;2024-03-23T05:31:12;8.60;99.90
4896;DHT22;2463;49.948;8.472;2024-03-23T05:33:47;8.70;99.90
4896;DHT22;2463;49.948;8.472;2024-03-23T05:36:13;8.70;99.90
4896;DHT22;2463;49.948;8.472;2024-03-23T05:38:39;8.70;99.90
4896;DHT22;2463;49.948;8.472;2024-03-23T05:41:05;8.70;99.90
4896;DHT22;2463;49.948;8.472;2024-03-23T05:43:31;8.70;99.90
4896;DHT22;2463;49.948;8.472;2024-03-23T05:45:57;8.60;99.90
4896;DHT22;2463;49.948;8.472;2024-03-23T05:48:24;8.60;99.90
4896;DHT22;2463;49.948;8.472;2024-03-23T05:50:50;8.70;99.90
4896;DHT22;2463;49.948;8.472;2024-03-23T05:53:16;8.70;99.90
4896;DHT22;2463;49.948;8.472;2024-03-23T05:55:42;8.70;99.90
4896;DHT22;2463;49.948;8.472;2024-03-23T05:58:09;8.60;99.90
4896;DHT22;2463;49.948;8.472;2024-03-23T06:00:34;8.60;99.90
4896;DHT22;2463;49.948;8.472;2024-03-23T06:03:00;8.50;99.90
4896;DHT22;2463;49.948;8.472;2024-03-23T06:05:26;8.50;99.90
4896;DHT22;2463;49.948;8.472;2024-03-23T06:07:52;8.50;99.90
4896;DHT22;2463;49.948;8.472;2024-03-23T06:10:18;8.50;99.90
4896;DHT22;2463;49.948;8.472;2024-03-23T06:12:46;8.50;99.90
4896;DHT22;2463;49.948;8.472;2024-03-23T06:15:12;8.50;99.90
4896;DHT22;2463;49.948;8.472;2024-03-23T06:17:38;8.40;99.90
4896;DHT22;2463;49.948;8.472;2024-03-23T06:20:04;8.40;99.90
4896;DHT22;2463;49.948;8.472;2024-03-23T06:22:32;8.50;99.90
4896;DHT22;2463;49.948;8.472;2024-03-23T06:24:59;8.50;99.90
4896;DHT22;2463;49.948;8.472;2024-03-23T06:27:25;8.60;99.90
4896;DHT22;2463;49.948;8.472;2024-03-23T06:29:50;8.60;99.90
4896;DHT22;2463;49.948;8.472;2024-03-23T06:32:17;8.70;99.90
4896;DHT22;2463;49.948;8.472;2024-03-23T06:34:43;8.70;99.90
4896;DHT22;2463;49.948;8.472;2024-03-23T06:37:09;8.70;99.90
4896;DHT22;2463;49.948;8.472;2024-03-23T06:39:38;8.60;99.90
4896;DHT22;2463;49.948;8.472;2024-03-23T06:42:04;8.60;99.90
4896;DHT22;2463;49.948;8.472;2024-03-23T06:44:30;8.60;99.90
4896;DHT22;2463;49.948;8.472;2024-03-23T06:46:56;8.70;99.90
4896;DHT22;2463;49.948;8.472;2024-03-23T06:49:25;8.80;99.90
4896;DHT22;2463;49.948;8.472;2024-03-23T06:51:51;8.80;99.90
4896;DHT22;2463;49.948;8.472;2024-03-23T06:54:17;8.90;99.90
4896;DHT22;2463;49.948;8.472;2024-03-23T06:56:46;8.90;99.90
4896;DHT22;2463;49.948;8.472;2024-03-23T06:59:12;8.90;99.90
4896;DHT22;2463;49.948;8.472;2024-03-23T07:01:38;8.90;99.90
4896;DHT22;2463;49.948;8.472;2024-03-23T07:04:04;8.90;99.90
4896;DHT22;2463;49.948;8.472;2024-03-23T07:06:33;9.00;99.90
4896;DHT22;2463;49.948;8.472;2024-03-23T07:08:59;9.10;99.90
4896;DHT22;2463;49.948;8.472;2024-03-23T07:11:25;9.30;99.90
4896;DHT22;2463;49.948;8.472;2024-03-23T07:13:53;9.50;99.90
4896;DHT22;2463;49.948;8.472;2024-03-23T07:16:23;9.60;99.90
4896;DHT22;2463;49.948;8.472;2024-03-23T07:18:50;9.50;99.90
4896;DHT22;2463;49.948;8.472;2024-03-23T07:21:16;9.30;99.90
4896;DHT22;2463;49.948;8.472;2024-03-23T07:23:45;9.40;99.90
4896;DHT22;2463;49.948;8.472;2024-03-23T07:26:11;9.50;99.90
4896;DHT22;2463;49.948;8.472;2024-03-23T07:28:37;9.60;99.90
4896;DHT22;2463;49.948;8.472;2024-03-23T07:31:05;9.60;99.90
4896;DHT22;2463;49.948;8.472;2024-03-23T07:33:32;9.80;99.90
4896;DHT22;2463;49.948;8.472;2024-03-23T07:35:58;9.90;99.90
4896;DHT22;2463;49.948;8.472;2024-03-23T07:38:27;9.90;99.90
4896;DHT22;2463;49.948;8.472;2024-03-23T07:41:13;10.10;99.90
4896;DHT22;2463;49.948;8.472;2024-03-23T07:43:40;10.10;99.90
4896;DHT22;2463;49.948;8.472;2024-03-23T07:46:06;10.20;99.90
4896;DHT22;2463;49.948;8.472;2024-03-23T07:48:32;10.30;99.90
4896;DHT22;2463;49.948;8.472;2024-03-23T07:51:03;10.50;99.90
4896;DHT22;2463;49.948;8.472;2024-03-23T07:53:30;10.60;99.90
4896;DHT22;2463;49.948;8.472;2024-03-23T07:55:58;10.80;99.90
4896;DHT22;2463;49.948;8.472;2024-03-23T07:58:24;10.70;99.90
4896;DHT22;2463;49.948;8.472;2024-03-23T08:00:50;10.70;99.90
4896;DHT22;2463;49.948;8.472;2024-03-23T08:03:15;10.60;99.90
4896;DHT22;2463;49.948;8.472;2024-03-23T08:05:41;10.50;99.90
4896;DHT22;2463;49.948;8.472;2024-03-23T08:08:07;10.50;99.90
4896;DHT22;2463;49.948;8.472;2024-03-23T08:10:33;10.40;99.90
4896;DHT22;2463;49.948;8.472;2024-03-23T08:12:58;10.40;99.90
4896;DHT22;2463;49.948;8.472;2024-03-23T08:15:24;10.30;99.90
4896;DHT22;2463;49.948;8.472;2024-03-23T08:17:50;11.60;99.90
4896;DHT22;2463;49.948;8.472;2024-03-23T08:20:16;12.90;99.90
4896;DHT22;2463;49.948;8.472;2024-03-23T08:22:42;13.40;99.90
4896;DHT22;2463;49.948;8.472;2024-03-23T08:25:07;13.70;99.90
4896;DHT22;2463;49.948;8.472;2024-03-23T08:27:33;14.10;99.90
4896;DHT22;2463;49.948;8.472;2024-03-23T08:29:59;14.00;99.90
4896;DHT22;2463;49.948;8.472;2024-03-23T08:32:24;13.60;99.90
4896;DHT22;2463;49.948;8.472;2024-03-23T08:34:50;13.60;99.90
4896;DHT22;2463;49.948;8.472;2024-03-23T08:37:16;13.50;99.90
4896;DHT22;2463;49.948;8.472;2024-03-23T08:39:44;13.30;99.90
4896;DHT22;2463;49.948;8.472;2024-03-23T08:42:10;13.10;99.90
4896;DHT22;2463;49.948;8.472;2024-03-23T08:44:36;13.80;99.90
4896;DHT22;2463;49.948;8.472;2024-03-23T08:47:02;15.10;99.90
4896;DHT22;2463;49.948;8.472;2024-03-23T08:49:27;16.30;99.90
4896;DHT22;2463;49.948;8.472;2024-03-23T08:51:53;16.40;99.90
4896;DHT22;2463;49.948;8.472;2024-03-23T08:54:20;16.80;99.90
4896;DHT22;2463;49.948;8.472;2024-03-23T08:56:47;17.10;99.90
4896;DHT22;2463;49.948;8.472;2024-03-23T08:59:13;17.40;99.90
4896;DHT22;2463;49.948;8.472;2024-03-23T09:01:39;17.60;99.90
4896;DHT22;2463;49.948;8.472;2024-03-23T09:04:04;17.30;99.90
4896;DHT22;2463;49.948;8.472;2024-03-23T09:06:30;18.20;99.90
4896;DHT22;2463;49.948;8.472;2024-03-23T09:08:56;18.20;99.30
4896;DHT22;2463;49.948;8.472;2024-03-23T09:11:22;18.20;98.60
4896;DHT22;2463;49.948;8.472;2024-03-23T09:13:47;17.60;98.30
4896;DHT22;2463;49.948;8.472;2024-03-23T09:16:13;17.10;98.70
4896;DHT22;2463;49.948;8.472;2024-03-23T09:18:39;16.70;99.50
4896;DHT22;2463;49.948;8.472;2024-03-23T09:21:11;16.30;99.70
4896;DHT22;2463;49.948;8.472;2024-03-23T09:23:38;16.60;99.90
4896;DHT22;2463;49.948;8.472;2024-03-23T09:26:04;17.00;99.90
4896;DHT22;2463;49.948;8.472;2024-03-23T09:28:30;17.00;98.60
4896;DHT22;2463;49.948;8.472;2024-03-23T09:31:05;16.80;98.00
4896;DHT22;2463;49.948;8.472;2024-03-23T09:33:31;16.70;98.40
4896;DHT22;2463;49.948;8.472;2024-03-23T09:35:57;16.80;98.80
4896;DHT22;2463;49.948;8.472;2024-03-23T09:38:23;17.10;99.30
4896;DHT22;2463;49.948;8.472;2024-03-23T09:40:53;17.60;96.60
4896;DHT22;2463;49.948;8.472;2024-03-23T09:43:19;18.20;95.60
4896;DHT22;2463;49.948;8.472;2024-03-23T09:45:45;17.00;94.40
4896;DHT22;2463;49.948;8.472;2024-03-23T09:48:12;18.60;95.80
4896;DHT22;2463;49.948;8.472;2024-03-23T09:50:38;19.30;95.10
4896;DHT22;2463;49.948;8.472;2024-03-23T09:53:06;19.00;92.90
4896;DHT22;2463;49.948;8.472;2024-03-23T09:55:31;18.20;93.50
4896;DHT22;2463;49.948;8.472;2024-03-23T09:57:57;19.00;93.90
4896;DHT22;2463;49.948;8.472;2024-03-23T10:00:23;19.10;93.20
4896;DHT22;2463;49.948;8.472;2024-03-23T10:02:49;18.40;92.90
4896;DHT22;2463;49.948;8.472;2024-03-23T10:05:22;17.30;92.70
4896;DHT22;2463;49.948;8.472;2024-03-23T10:07:51;16.30;93.50
4896;DHT22;2463;49.948;8.472;2024-03-23T10:10:17;15.80;94.40
4896;DHT22;2463;49.948;8.472;2024-03-23T10:12:47;15.50;94.90
4896;DHT22;2463;49.948;8.472;2024-03-23T10:15:35;15.00;93.80
4896;DHT22;2463;49.948;8.472;2024-03-23T10:18:19;14.50;95.20
4896;DHT22;2463;49.948;8.472;2024-03-23T10:23:35;13.80;95.70
4896;DHT22;2463;49.948;8.472;2024-03-23T10:26:23;13.50;96.00
4896;DHT22;2463;49.948;8.472;2024-03-23T10:28:56;13.20;97.20
4896;DHT22;2463;49.948;8.472;2024-03-23T10:31:33;13.20;98.10
4896;DHT22;2463;49.948;8.472;2024-03-23T10:34:02;13.20;97.50
4896;DHT22;2463;49.948;8.472;2024-03-23T10:36:29;13.30;97.00
4896;DHT22;2463;49.948;8.472;2024-03-23T10:38:56;13.10;95.20
4896;DHT22;2463;49.948;8.472;2024-03-23T10:41:27;12.70;96.50
4896;DHT22;2463;49.948;8.472;2024-03-23T10:43:55;11.80;98.20
4896;DHT22;2463;49.948;8.472;2024-03-23T10:46:21;11.30;99.40
4896;DHT22;2463;49.948;8.472;2024-03-23T10:48:47;10.70;99.90
4896;DHT22;2463;49.948;8.472;2024-03-23T10:51:14;10.40;99.90
4896;DHT22;2463;49.948;8.472;2024-03-23T10:53:40;9.80;99.90
4896;DHT22;2463;49.948;8.472;2024-03-23T10:56:07;9.40;99.90
4896;DHT22;2463;49.948;8.472;2024-03-23T10:58:39;9.10;99.90
4896;DHT22;2463;49.948;8.472;2024-03-23T11:03:36;8.50;99.90
4896;DHT22;2463;49.948;8.472;2024-03-23T11:06:03;8.30;99.90
4896;DHT22;2463;49.948;8.472;2024-03-23T11:08:39;8.20;99.90
4896;DHT22;2463;49.948;8.472;2024-03-23T11:11:21;8.30;99.90
4896;DHT22;2463;49.948;8.472;2024-03-23T11:13:51;8.30;99.90
4896;DHT22;2463;49.948;8.472;2024-03-23T11:16:25;8.00;99.90
4896;DHT22;2463;49.948;8.472;2024-03-23T11:18:53;8.00;99.90
4896;DHT22;2463;49.948;8.472;2024-03-23T11:21:54;8.10;99.90
4896;DHT22;2463;49.948;8.472;2024-03-23T11:24:21;8.20;99.90
4896;DHT22;2463;49.948;8.472;2024-03-23T11:26:48;8.20;99.90
4896;DHT22;2463;49.948;8.472;2024-03-23T11:29:16;8.20;99.90
4896;DHT22;2463;49.948;8.472;2024-03-23T11:31:52;8.20;99.90
4896;DHT22;2463;49.948;8.472;2024-03-23T11:34:19;8.20;99.90
4896;DHT22;2463;49.948;8.472;2024-03-23T11:36:46;8.40;99.90
4896;DHT22;2463;49.948;8.472;2024-03-23T11:39:14;9.30;99.90
4896;DHT22;2463;49.948;8.472;2024-03-23T11:41:48;10.40;99.90
4896;DHT22;2463;49.948;8.472;2024-03-23T11:44:16;14.00;99.90
4896;DHT22;2463;49.948;8.472;2024-03-23T11:46:41;18.40;99.90
4896;DHT22;2463;49.948;8.472;2024-03-23T11:49:26;21.80;99.90
4896;DHT22;2463;49.948;8.472;2024-03-23T11:51:53;25.00;95.00
4896;DHT22;2463;49.948;8.472;2024-03-23T11:54:25;27.40;85.30
4896;DHT22;2463;49.948;8.472;2024-03-23T11:56:55;28.90;76.20
4896;DHT22;2463;49.948;8.472;2024-03-23T11:59:38;29.40;59.50
4896;DHT22;2463;49.948;8.472;2024-03-23T12:02:07;29.10;58.70
4896;DHT22;2463;49.948;8.472;2024-03-23T12:04:33;29.60;55.20
4896;DHT22;2463;49.948;8.472;2024-03-23T12:07:20;30.10;54.50
4896;DHT22;2463;49.948;8.472;2024-03-23T12:09:47;30.40;51.80
4896;DHT22;2463;49.948;8.472;2024-03-23T12:12:27;29.30;51.40
4896;DHT22;2463;49.948;8.472;2024-03-23T12:15:06;30.10;51.30
4896;DHT22;2463;49.948;8.472;2024-03-23T12:17:34;30.10;51.00
4896;DHT22;2463;49.948;8.472;2024-03-23T12:20:01;30.70;51.10
4896;DHT22;2463;49.948;8.472;2024-03-23T12:22:27;31.80;50.50
4896;DHT22;2463;49.948;8.472;2024-03-23T12:24:55;32.60;46.90
4896;DHT22;2463;49.948;8.472;2024-03-23T12:27:20;31.00;44.90
4896;DHT22;2463;49.948;8.472;2024-03-23T12:29:46;30.10;46.90
4896;DHT22;2463;49.948;8.472;2024-03-23T12:32:13;29.50;44.00
4896;DHT22;2463;49.948;8.472;2024-03-23T12:34:39;28.60;44.10
4896;DHT22;2463;49.948;8.472;2024-03-23T12:37:05;26.70;45.40
4896;DHT22;2463;49.948;8.472;2024-03-23T12:39:34;25.10;46.90
4896;DHT22;2463;49.948;8.472;2024-03-23T12:42:01;23.90;48.40
4896;DHT22;2463;49.948;8.472;2024-03-23T12:44:28;22.20;49.00
4896;DHT22;2463;49.948;8.472;2024-03-23T12:46:54;20.80;50.30
4896;DHT22;2463;49.948;8.472;2024-03-23T12:49:20;20.40;53.20
4896;DHT22;2463;49.948;8.472;2024-03-23T12:51:56;20.60;56.50
4896;DHT22;2463;49.948;8.472;2024-03-23T12:54:22;19.60;56.80
4896;DHT22;2463;49.948;8.472;2024-03-23T12:56:48;18.10;58.80
4896;DHT22;2463;49.948;8.472;2024-03-23T12:59:14;16.50;61.30
4896;DHT22;2463;49.948;8.472;2024-03-23T13:01:40;14.90;65.20
4896;DHT22;2463;49.948;8.472;2024-03-23T13:04:06;14.10;71.50
4896;DHT22;2463;49.948;8.472;2024-03-23T13:06:32;13.00;81.90
4896;DHT22;2463;49.948;8.472;2024-03-23T13:12:14;11.10;99.90
4896;DHT22;2463;49.948;8.472;2024-03-23T13:14:40;10.20;99.90
4896;DHT22;2463;49.948;8.472;2024-03-23T13:17:06;9.70;99.90
4896;DHT22;2463;49.948;8.472;2024-03-23T13:19:32;9.40;99.90
4896;DHT22;2463;49.948;8.472;2024-03-23T13:21:59;9.30;99.90
4896;DHT22;2463;49.948;8.472;2024-03-23T13:24:26;9.60;99.90
4896;DHT22;2463;49.948;8.472;2024-03-23T13:26:53;10.30;99.90
4896;DHT22;2463;49.948;8.472;2024-03-23T13:29:19;11.40;99.90
4896;DHT22;2463;49.948;8.472;2024-03-23T13:31:49;12.10;99.90
4896;DHT22;2463;49.948;8.472;2024-03-23T13:34:15;13.10;99.90
4896;DHT22;2463;49.948;8.472;2024-03-23T13:36:42;14.90;99.90
4896;DHT22;2463;49.948;8.472;2024-03-23T13:39:08;16.40;99.90
4896;DHT22;2463;49.948;8.472;2024-03-23T13:41:38;16.80;99.90
4896;DHT22;2463;49.948;8.472;2024-03-23T13:44:08;16.90;99.90
4896;DHT22;2463;49.948;8.472;2024-03-23T13:46:36;19.10;99.90
4896;DHT22;2463;49.948;8.472;2024-03-23T13:49:03;20.40;99.90
4896;DHT22;2463;49.948;8.472;2024-03-23T13:51:29;21.40;99.50
4896;DHT22;2463;49.948;8.472;2024-03-23T13:53:55;21.90;96.10
4896;DHT22;2463;49.948;8.472;2024-03-23T13:56:28;21.10;94.10
4896;DHT22;2463;49.948;8.472;2024-03-23T13:58:56;19.80;94.70
4896;DHT22;2463;49.948;8.472;2024-03-23T14:01:21;19.60;95.00
4896;DHT22;2463;49.948;8.472;2024-03-23T14:03:47;18.80;95.20
4896;DHT22;2463;49.948;8.472;2024-03-23T14:06:13;17.70;95.40
4896;DHT22;2463;49.948;8.472;2024-03-23T14:08:39;17.60;97.90
4896;DHT22;2463;49.948;8.472;2024-03-23T14:11:05;18.00;97.90
4896;DHT22;2463;49.948;8.472;2024-03-23T14:13:31;18.00;96.50
4896;DHT22;2463;49.948;8.472;2024-03-23T14:15:58;17.50;96.40
4896;DHT22;2463;49.948;8.472;2024-03-23T14:18:24;16.80;96.90
4896;DHT22;2463;49.948;8.472;2024-03-23T14:20:52;16.50;98.40
4896;DHT22;2463;49.948;8.472;2024-03-23T14:23:18;16.50;98.60
4896;DHT22;2463;49.948;8.472;2024-03-23T14:25:44;16.30;99.10
4896;DHT22;2463;49.948;8.472;2024-03-23T14:28:10;15.90;98.50
4896;DHT22;2463;49.948;8.472;2024-03-23T14:30:41;15.50;98.30
4896;DHT22;2463;49.948;8.472;2024-03-23T14:33:07;14.90;98.70
4896;DHT22;2463;49.948;8.472;2024-03-23T14:35:33;14.50;99.00
4896;DHT22;2463;49.948;8.472;2024-03-23T14:37:59;13.90;99.10
4896;DHT22;2463;49.948;8.472;2024-03-23T14:40:24;13.80;99.90
4896;DHT22;2463;49.948;8.472;2024-03-23T14:42:56;14.00;99.90
4896;DHT22;2463;49.948;8.472;2024-03-23T14:45:22;14.40;99.90
4896;DHT22;2463;49.948;8.472;2024-03-23T14:47:50;14.40;98.80
4896;DHT22;2463;49.948;8.472;2024-03-23T14:50:16;14.10;98.50
4896;DHT22;2463;49.948;8.472;2024-03-23T14:52:45;13.70;99.10
4896;DHT22;2463;49.948;8.472;2024-03-23T14:55:12;13.40;99.60
4896;DHT22;2463;49.948;8.472;2024-03-23T14:57:38;13.30;99.00
4896;DHT22;2463;49.948;8.472;2024-03-23T15:00:08;13.20;98.10
4896;DHT22;2463;49.948;8.472;2024-03-23T15:02:37;12.90;98.90
4896;DHT22;2463;49.948;8.472;2024-03-23T15:05:03;12.60;97.80
4896;DHT22;2463;49.948;8.472;2024-03-23T15:07:30;12.70;99.50
4896;DHT22;2463;49.948;8.472;2024-03-23T15:09:56;12.80;99.30
4896;DHT22;2463;49.948;8.472;2024-03-23T15:12:22;12.80;99.90
4896;DHT22;2463;49.948;8.472;2024-03-23T15:14:48;12.50;98.50
4896;DHT22;2463;49.948;8.472;2024-03-23T15:17:14;12.30;99.10
4896;DHT22;2463;49.948;8.472;2024-03-23T15:19:40;12.20;99.20
4896;DHT22;2463;49.948;8.472;2024-03-23T15:22:08;12.00;99.50
4896;DHT22;2463;49.948;8.472;2024-03-23T15:24:34;11.80;99.10
4896;DHT22;2463;49.948;8.472;2024-03-23T15:27:02;11.80;99.90
4896;DHT22;2463;49.948;8.472;2024-03-23T15:29:28;11.60;99.90
4896;DHT22;2463;49.948;8.472;2024-03-23T15:31:54;11.20;99.90
4896;DHT22;2463;49.948;8.472;2024-03-23T15:34:20;10.80;99.90
4896;DHT22;2463;49.948;8.472;2024-03-23T15:36:48;10.30;99.90
4896;DHT22;2463;49.948;8.472;2024-03-23T15:39:17;10.00;99.90
4896;DHT22;2463;49.948;8.472;2024-03-23T15:41:46;9.70;99.90
4896;DHT22;2463;49.948;8.472;2024-03-23T15:44:12;9.60;99.90
4896;DHT22;2463;49.948;8.472;2024-03-23T15:46:38;9.50;99.90
4896;DHT22;2463;49.948;8.472;2024-03-23T15:49:03;9.30;99.90
4896;DHT22;2463;49.948;8.472;2024-03-23T15:51:30;9.40;99.90
4896;DHT22;2463;49.948;8.472;2024-03-23T15:54:00;9.40;99.90
4896;DHT22;2463;49.948;8.472;2024-03-23T15:56:28;9.40;99.90
4896;DHT22;2463;49.948;8.472;2024-03-23T15:58:54;9.80;99.90
4896;DHT22;2463;49.948;8.472;2024-03-23T16:01:20;9.70;99.90
4896;DHT22;2463;49.948;8.472;2024-03-23T16:03:47;9.60;99.90
4896;DHT22;2463;49.948;8.472;2024-03-23T16:06:13;9.60;99.90
4896;DHT22;2463;49.948;8.472;2024-03-23T16:08:39;9.60;99.90
4896;DHT22;2463;49.948;8.472;2024-03-23T16:11:06;9.50;99.90
4896;DHT22;2463;49.948;8.472;2024-03-23T16:13:32;9.40;99.90
4896;DHT22;2463;49.948;8.472;2024-03-23T16:15:59;9.30;99.90
4896;DHT22;2463;49.948;8.472;2024-03-23T16:18:26;9.20;99.90
4896;DHT22;2463;49.948;8.472;2024-03-23T16:20:53;9.00;99.90
4896;DHT22;2463;49.948;8.472;2024-03-23T16:23:19;9.00;99.90
4896;DHT22;2463;49.948;8.472;2024-03-23T16:25:52;9.00;99.90
4896;DHT22;2463;49.948;8.472;2024-03-23T16:28:32;9.00;99.90
4896;DHT22;2463;49.948;8.472;2024-03-23T16:30:59;9.00;99.90
4896;DHT22;2463;49.948;8.472;2024-03-23T16:33:26;9.00;99.90
4896;DHT22;2463;49.948;8.472;2024-03-23T16:38:30;9.20;99.90
4896;DHT22;2463;49.948;8.472;2024-03-23T16:40:59;9.30;99.90
4896;DHT22;2463;49.948;8.472;2024-03-23T16:43:26;9.30;99.90
4896;DHT22;2463;49.948;8.472;2024-03-23T16:46:03;9.30;99.90
4896;DHT22;2463;49.948;8.472;2024-03-23T16:48:32;9.30;99.90
4896;DHT22;2463;49.948;8.472;2024-03-23T16:51:00;9.20;99.90
4896;DHT22;2463;49.948;8.472;2024-03-23T16:53:26;9.10;99.90
4896;DHT22;2463;49.948;8.472;2024-03-23T16:55:57;9.00;99.90
4896;DHT22;2463;49.948;8.472;2024-03-23T16:58:26;9.00;99.90
4896;DHT22;2463;49.948;8.472;2024-03-23T17:00:52;8.80;99.90
4896;DHT22;2463;49.948;8.472;2024-03-23T17:03:21;8.90;99.90
4896;DHT22;2463;49.948;8.472;2024-03-23T17:05:47;8.70;99.90
4896;DHT22;2463;49.948;8.472;2024-03-23T17:08:13;8.70;99.90
4896;DHT22;2463;49.948;8.472;2024-03-23T17:10:39;8.60;99.90
4896;DHT22;2463;49.948;8.472;2024-03-23T17:13:05;8.60;99.90
4896;DHT22;2463;49.948;8.472;2024-03-23T17:15:31;8.60;99.90
4896;DHT22;2463;49.948;8.472;2024-03-23T17:17:57;8.60;99.90